sensor_id;sensor_type;location;lat;lon;timestamp;pressure;altitude;pressure_sealevel;temperature;humidity
11952;BME280;6036;41.840;23.486;2022-09-09T00:04:28;90881.16;;;20.17;53.24
11952;BME280;6036;41.840;23.486;2022-09-09T00:09:34;90880.78;;;19.97;54.07
11952;BME280;6036;41.840;23.486;2022-09-09T00:12:12;90876.59;;;19.96;54.18
11952;BME280;6036;41.840;23.486;2022-09-09T00:14:56;90872.03;;;19.93;54.17
11952;BME280;6036;41.840;23.486;2022-09-09T00:22:28;90881.13;;;19.71;54.92
11952;BME280;6036;41.840;23.486;2022-09-09T00:25:19;90866.72;;;19.72;55.04
11952;BME280;6036;41.840;23.486;2022-09-09T00:27:49;90873.50;;;19.52;55.64
11952;BME280;6036;41.840;23.486;2022-09-09T00:30:24;90875.03;;;19.63;55.25
11952;BME280;6036;41.840;23.486;2022-09-09T00:32:55;90875.81;;;19.78;54.69
11952;BME280;6036;41.840;23.486;2022-09-09T00:35:44;90877.34;;;19.79;54.72
11952;BME280;6036;41.840;23.486;2022-09-09T00:38:25;90887.22;;;19.82;55.07
11952;BME280;6036;41.840;23.486;2022-09-09T00:44:32;90897.81;;;19.57;55.45
11952;BME280;6036;41.840;23.486;2022-09-09T00:52:46;90880.53;;;19.02;56.97
11952;BME280;6036;41.840;23.486;2022-09-09T00:57:58;90871.84;;;19.05;57.18
11952;BME280;6036;41.840;23.486;2022-09-09T01:00:30;90865.38;;;19.02;57.80
11952;BME280;6036;41.840;23.486;2022-09-09T01:06:01;90863.19;;;19.25;57.02
11952;BME280;6036;41.840;23.486;2022-09-09T01:08:50;90881.09;;;19.42;56.33
11952;BME280;6036;41.840;23.486;2022-09-09T01:11:25;90877.34;;;19.58;55.47
11952;BME280;6036;41.840;23.486;2022-09-09T01:17:21;90868.59;;;19.68;55.28
11952;BME280;6036;41.840;23.486;2022-09-09T01:28:27;90863.66;;;19.45;56.55
11952;BME280;6036;41.840;23.486;2022-09-09T01:30:55;90861.72;;;19.38;56.71
11952;BME280;6036;41.840;23.486;2022-09-09T01:33:21;90856.06;;;19.43;56.65
11952;BME280;6036;41.840;23.486;2022-09-09T01:36:01;90861.00;;;19.38;56.83
11952;BME280;6036;41.840;23.486;2022-09-09T01:38:31;90859.06;;;19.35;57.06
11952;BME280;6036;41.840;23.486;2022-09-09T01:40:57;90862.88;;;19.48;56.61
11952;BME280;6036;41.840;23.486;2022-09-09T01:43:24;90858.69;;;19.43;56.61
11952;BME280;6036;41.840;23.486;2022-09-09T01:45:56;90864.31;;;19.24;56.84
11952;BME280;6036;41.840;23.486;2022-09-09T01:48:24;90864.69;;;19.26;56.66
11952;BME280;6036;41.840;23.486;2022-09-09T01:50:51;90864.34;;;19.28;56.45
11952;BME280;6036;41.840;23.486;2022-09-09T01:53:17;90851.06;;;19.31;56.25
11952;BME280;6036;41.840;23.486;2022-09-09T02:01:46;90864.41;;;19.49;55.98
11952;BME280;6036;41.840;23.486;2022-09-09T02:06:48;90871.22;;;19.39;55.75
11952;BME280;6036;41.840;23.486;2022-09-09T02:09:16;90862.03;;;19.19;56.44
11952;BME280;6036;41.840;23.486;2022-09-09T02:11:45;90859.75;;;19.21;56.52
11952;BME280;6036;41.840;23.486;2022-09-09T02:14:18;90871.16;;;19.25;56.61
11952;BME280;6036;41.840;23.486;2022-09-09T02:17:29;90861.31;;;19.29;56.60
11952;BME280;6036;41.840;23.486;2022-09-09T02:20:15;90859.75;;;19.11;57.05
11952;BME280;6036;41.840;23.486;2022-09-09T02:22:45;90865.41;;;19.16;56.81
11952;BME280;6036;41.840;23.486;2022-09-09T02:25:13;90855.19;;;19.11;57.08
11952;BME280;6036;41.840;23.486;2022-09-09T02:27:43;90856.25;;;18.93;58.15
11952;BME280;6036;41.840;23.486;2022-09-09T02:30:10;90849.81;;;18.97;58.71
11952;BME280;6036;41.840;23.486;2022-09-09T02:32:38;90846.81;;;19.02;58.09
11952;BME280;6036;41.840;23.486;2022-09-09T02:35:09;90848.31;;;19.00;58.69
11952;BME280;6036;41.840;23.486;2022-09-09T02:37:38;90846.44;;;19.00;58.43
11952;BME280;6036;41.840;23.486;2022-09-09T02:40:06;90852.31;;;18.62;60.05
11952;BME280;6036;41.840;23.486;2022-09-09T02:42:38;90850.38;;;18.52;60.85
11952;BME280;6036;41.840;23.486;2022-09-09T02:45:04;90845.53;;;18.68;59.81
11952;BME280;6036;41.840;23.486;2022-09-09T02:48:09;90843.00;;;18.96;59.03
11952;BME280;6036;41.840;23.486;2022-09-09T02:50:39;90839.19;;;18.90;58.72
11952;BME280;6036;41.840;23.486;2022-09-09T02:53:21;90845.97;;;18.84;58.89
11952;BME280;6036;41.840;23.486;2022-09-09T02:55:56;90834.66;;;18.94;58.44
11952;BME280;6036;41.840;23.486;2022-09-09T02:58:24;90845.69;;;19.03;57.88
11952;BME280;6036;41.840;23.486;2022-09-09T03:00:51;90839.97;;;18.94;58.03
11952;BME280;6036;41.840;23.486;2022-09-09T03:03:18;90844.56;;;19.01;57.94
11952;BME280;6036;41.840;23.486;2022-09-09T03:05:45;90845.72;;;19.10;57.66
11952;BME280;6036;41.840;23.486;2022-09-09T03:08:11;90835.50;;;19.16;57.26
11952;BME280;6036;41.840;23.486;2022-09-09T03:10:38;90834.31;;;19.06;57.84
11952;BME280;6036;41.840;23.486;2022-09-09T03:13:04;90820.66;;;18.97;57.66
11952;BME280;6036;41.840;23.486;2022-09-09T03:15:32;90837.66;;;18.78;58.42
11952;BME280;6036;41.840;23.486;2022-09-09T03:17:59;90844.47;;;18.87;58.18
11952;BME280;6036;41.840;23.486;2022-09-09T03:20:26;90835.34;;;18.73;58.57
11952;BME280;6036;41.840;23.486;2022-09-09T03:22:52;90841.38;;;18.74;58.56
11952;BME280;6036;41.840;23.486;2022-09-09T03:25:18;90848.56;;;18.70;58.73
11952;BME280;6036;41.840;23.486;2022-09-09T03:27:44;90850.53;;;18.80;58.33
11952;BME280;6036;41.840;23.486;2022-09-09T03:30:10;90846.75;;;18.81;58.73
11952;BME280;6036;41.840;23.486;2022-09-09T03:32:36;90842.91;;;18.75;58.78
11952;BME280;6036;41.840;23.486;2022-09-09T03:35:02;90849.97;;;18.50;59.15
11952;BME280;6036;41.840;23.486;2022-09-09T03:37:27;90850.66;;;18.40;59.54
11952;BME280;6036;41.840;23.486;2022-09-09T03:39:52;90847.16;;;18.25;59.87
11952;BME280;6036;41.840;23.486;2022-09-09T03:42:20;90850.97;;;18.28;59.77
11952;BME280;6036;41.840;23.486;2022-09-09T03:44:46;90840.44;;;18.38;59.31
11952;BME280;6036;41.840;23.486;2022-09-09T03:47:19;90846.13;;;18.37;59.49
11952;BME280;6036;41.840;23.486;2022-09-09T03:49:47;90838.16;;;18.37;59.90
11952;BME280;6036;41.840;23.486;2022-09-09T03:52:13;90835.91;;;18.42;59.51
11952;BME280;6036;41.840;23.486;2022-09-09T03:54:39;90840.19;;;18.54;59.16
11952;BME280;6036;41.840;23.486;2022-09-09T03:57:06;90845.53;;;18.71;58.51
11952;BME280;6036;41.840;23.486;2022-09-09T03:59:31;90847.13;;;18.83;57.96
11952;BME280;6036;41.840;23.486;2022-09-09T04:01:57;90854.59;;;18.60;58.54
11952;BME280;6036;41.840;23.486;2022-09-09T04:04:24;90851.03;;;18.38;59.07
11952;BME280;6036;41.840;23.486;2022-09-09T04:06:49;90859.41;;;18.44;58.78
11952;BME280;6036;41.840;23.486;2022-09-09T04:09:16;90858.75;;;18.57;58.08
11952;BME280;6036;41.840;23.486;2022-09-09T04:11:41;90850.47;;;18.66;57.90
11952;BME280;6036;41.840;23.486;2022-09-09T04:14:06;90859.19;;;18.66;58.44
11952;BME280;6036;41.840;23.486;2022-09-09T04:16:33;90860.41;;;18.25;59.54
11952;BME280;6036;41.840;23.486;2022-09-09T04:18:59;90852.47;;;18.25;59.65
11952;BME280;6036;41.840;23.486;2022-09-09T04:21:25;90848.00;;;18.40;59.82
11952;BME280;6036;41.840;23.486;2022-09-09T04:23:51;90832.44;;;18.35;59.64
11952;BME280;6036;41.840;23.486;2022-09-09T04:26:16;90840.06;;;18.36;60.40
11952;BME280;6036;41.840;23.486;2022-09-09T04:28:42;90830.44;;;18.79;59.12
11952;BME280;6036;41.840;23.486;2022-09-09T04:31:10;90844.50;;;18.90;58.81
11952;BME280;6036;41.840;23.486;2022-09-09T04:33:39;90850.59;;;19.01;58.07
11952;BME280;6036;41.840;23.486;2022-09-09T04:36:05;90849.84;;;19.04;57.75
11952;BME280;6036;41.840;23.486;2022-09-09T04:38:31;90843.72;;;18.82;58.30
11952;BME280;6036;41.840;23.486;2022-09-09T04:40:57;90860.06;;;18.95;58.27
11952;BME280;6036;41.840;23.486;2022-09-09T04:43:23;90860.19;;;18.48;60.17
11952;BME280;6036;41.840;23.486;2022-09-09T04:45:51;90864.09;;;18.68;59.74
11952;BME280;6036;41.840;23.486;2022-09-09T04:48:17;90854.31;;;18.82;59.58
11952;BME280;6036;41.840;23.486;2022-09-09T04:50:43;90848.28;;;18.89;59.41
11952;BME280;6036;41.840;23.486;2022-09-09T04:53:09;90858.09;;;18.81;59.42
11952;BME280;6036;41.840;23.486;2022-09-09T04:55:35;90857.44;;;19.02;59.06
11952;BME280;6036;41.840;23.486;2022-09-09T04:58:04;90849.94;;;19.32;58.16
11952;BME280;6036;41.840;23.486;2022-09-09T05:00:31;90844.28;;;19.41;58.00
11952;BME280;6036;41.840;23.486;2022-09-09T05:02:56;90838.25;;;19.58;57.53
11952;BME280;6036;41.840;23.486;2022-09-09T05:05:22;90839.41;;;19.75;57.26
11952;BME280;6036;41.840;23.486;2022-09-09T05:07:47;90840.94;;;19.86;57.02
11952;BME280;6036;41.840;23.486;2022-09-09T05:10:13;90842.06;;;20.03;56.72
11952;BME280;6036;41.840;23.486;2022-09-09T05:12:40;90858.41;;;19.87;57.34
11952;BME280;6036;41.840;23.486;2022-09-09T05:15:05;90859.91;;;20.06;56.90
11952;BME280;6036;41.840;23.486;2022-09-09T05:17:32;90860.25;;;20.22;56.84
11952;BME280;6036;41.840;23.486;2022-09-09T05:19:59;90870.91;;;20.61;55.50
11952;BME280;6036;41.840;23.486;2022-09-09T05:22:24;90870.06;;;20.82;55.22
11952;BME280;6036;41.840;23.486;2022-09-09T05:24:50;90859.38;;;21.10;54.60
11952;BME280;6036;41.840;23.486;2022-09-09T05:27:18;90868.13;;;20.96;54.59
11952;BME280;6036;41.840;23.486;2022-09-09T05:29:45;90875.75;;;20.98;54.72
11952;BME280;6036;41.840;23.486;2022-09-09T05:32:11;90878.66;;;21.31;53.65
11952;BME280;6036;41.840;23.486;2022-09-09T05:34:36;90867.25;;;21.31;53.39
11952;BME280;6036;41.840;23.486;2022-09-09T05:37:05;90863.53;;;21.14;54.54
11952;BME280;6036;41.840;23.486;2022-09-09T05:39:32;90844.56;;;20.98;54.40
11952;BME280;6036;41.840;23.486;2022-09-09T05:41:59;90836.19;;;21.07;54.37
11952;BME280;6036;41.840;23.486;2022-09-09T05:44:24;90825.38;;;21.42;53.45
11952;BME280;6036;41.840;23.486;2022-09-09T05:46:52;90827.25;;;21.42;53.99
11952;BME280;6036;41.840;23.486;2022-09-09T05:49:19;90831.19;;;21.81;53.45
11952;BME280;6036;41.840;23.486;2022-09-09T05:51:45;90832.56;;;22.07;52.44
11952;BME280;6036;41.840;23.486;2022-09-09T05:54:11;90834.19;;;21.90;54.20
11952;BME280;6036;41.840;23.486;2022-09-09T05:56:39;90836.66;;;22.15;53.33
11952;BME280;6036;41.840;23.486;2022-09-09T05:59:05;90843.03;;;22.32;52.85
11952;BME280;6036;41.840;23.486;2022-09-09T06:01:33;90852.50;;;22.77;52.07
11952;BME280;6036;41.840;23.486;2022-09-09T06:03:59;90847.69;;;23.33;50.06
11952;BME280;6036;41.840;23.486;2022-09-09T06:06:26;90847.19;;;23.98;49.33
11952;BME280;6036;41.840;23.486;2022-09-09T06:08:54;90859.03;;;24.47;47.90
11952;BME280;6036;41.840;23.486;2022-09-09T06:11:22;90862.72;;;24.80;47.19
11952;BME280;6036;41.840;23.486;2022-09-09T06:13:49;90854.22;;;24.85;46.78
11952;BME280;6036;41.840;23.486;2022-09-09T06:16:20;90855.59;;;24.70;47.12
11952;BME280;6036;41.840;23.486;2022-09-09T06:18:45;90855.38;;;24.84;47.17
11952;BME280;6036;41.840;23.486;2022-09-09T06:21:20;90857.38;;;24.80;47.48
11952;BME280;6036;41.840;23.486;2022-09-09T06:23:46;90854.53;;;25.10;46.63
11952;BME280;6036;41.840;23.486;2022-09-09T06:26:23;90852.38;;;25.41;45.86
11952;BME280;6036;41.840;23.486;2022-09-09T06:28:51;90863.31;;;25.69;45.44
11952;BME280;6036;41.840;23.486;2022-09-09T06:31:22;90862.34;;;25.96;44.91
11952;BME280;6036;41.840;23.486;2022-09-09T06:33:53;90857.13;;;25.72;45.65
11952;BME280;6036;41.840;23.486;2022-09-09T06:36:30;90848.88;;;25.99;45.22
11952;BME280;6036;41.840;23.486;2022-09-09T06:38:57;90844.94;;;26.68;43.02
11952;BME280;6036;41.840;23.486;2022-09-09T06:41:24;90842.94;;;26.88;42.02
11952;BME280;6036;41.840;23.486;2022-09-09T06:43:51;90845.13;;;27.06;42.41
11952;BME280;6036;41.840;23.486;2022-09-09T06:46:18;90844.28;;;26.64;41.94
11952;BME280;6036;41.840;23.486;2022-09-09T06:48:44;90846.06;;;27.16;41.92
11952;BME280;6036;41.840;23.486;2022-09-09T06:53:38;90850.25;;;27.58;41.04
11952;BME280;6036;41.840;23.486;2022-09-09T06:58:40;90858.72;;;27.15;41.68
11952;BME280;6036;41.840;23.486;2022-09-09T07:01:13;90857.38;;;27.36;41.38
11952;BME280;6036;41.840;23.486;2022-09-09T07:03:40;90866.22;;;27.36;40.75
11952;BME280;6036;41.840;23.486;2022-09-09T07:06:06;90856.44;;;27.84;40.69
11952;BME280;6036;41.840;23.486;2022-09-09T07:08:33;90863.88;;;27.92;39.96
11952;BME280;6036;41.840;23.486;2022-09-09T07:11:06;90860.88;;;28.66;38.97
11952;BME280;6036;41.840;23.486;2022-09-09T07:13:32;90854.72;;;29.12;37.89
11952;BME280;6036;41.840;23.486;2022-09-09T07:16:09;90863.63;;;29.78;37.04
11952;BME280;6036;41.840;23.486;2022-09-09T07:18:35;90864.13;;;31.05;34.91
11952;BME280;6036;41.840;23.486;2022-09-09T07:21:01;90858.28;;;32.30;32.41
11952;BME280;6036;41.840;23.486;2022-09-09T07:23:27;90861.84;;;32.54;31.53
11952;BME280;6036;41.840;23.486;2022-09-09T07:25:53;90859.41;;;32.89;30.87
11952;BME280;6036;41.840;23.486;2022-09-09T07:28:18;90858.63;;;34.12;28.97
11952;BME280;6036;41.840;23.486;2022-09-09T07:30:55;90856.25;;;34.98;27.84
11952;BME280;6036;41.840;23.486;2022-09-09T07:33:21;90862.22;;;35.57;27.02
11952;BME280;6036;41.840;23.486;2022-09-09T07:35:46;90859.69;;;36.51;25.43
11952;BME280;6036;41.840;23.486;2022-09-09T07:38:12;90855.19;;;37.22;24.76
11952;BME280;6036;41.840;23.486;2022-09-09T07:40:37;90855.16;;;36.79;25.53
11952;BME280;6036;41.840;23.486;2022-09-09T07:43:03;90848.31;;;36.27;25.92
11952;BME280;6036;41.840;23.486;2022-09-09T07:45:29;90856.13;;;36.14;26.29
11952;BME280;6036;41.840;23.486;2022-09-09T07:47:55;90853.06;;;36.94;25.25
11952;BME280;6036;41.840;23.486;2022-09-09T07:50:22;90852.53;;;37.97;23.87
11952;BME280;6036;41.840;23.486;2022-09-09T07:52:48;90841.69;;;37.60;24.20
11952;BME280;6036;41.840;23.486;2022-09-09T07:55:14;90844.75;;;37.79;23.79
11952;BME280;6036;41.840;23.486;2022-09-09T07:57:40;90843.56;;;37.91;23.86
11952;BME280;6036;41.840;23.486;2022-09-09T08:00:06;90851.34;;;38.42;22.83
11952;BME280;6036;41.840;23.486;2022-09-09T08:02:31;90842.66;;;38.61;22.82
11952;BME280;6036;41.840;23.486;2022-09-09T08:04:57;90842.16;;;38.62;23.30
11952;BME280;6036;41.840;23.486;2022-09-09T08:07:22;90840.16;;;38.63;22.82
11952;BME280;6036;41.840;23.486;2022-09-09T08:09:48;90854.59;;;38.58;23.12
11952;BME280;6036;41.840;23.486;2022-09-09T08:12:15;90849.19;;;39.54;21.98
11952;BME280;6036;41.840;23.486;2022-09-09T08:14:41;90854.13;;;39.78;21.47
11952;BME280;6036;41.840;23.486;2022-09-09T08:17:06;90850.56;;;40.70;20.46
11952;BME280;6036;41.840;23.486;2022-09-09T08:19:32;90855.66;;;40.84;20.54
11952;BME280;6036;41.840;23.486;2022-09-09T08:22:01;90851.84;;;41.90;19.50
11952;BME280;6036;41.840;23.486;2022-09-09T08:24:28;90856.31;;;41.26;20.37
11952;BME280;6036;41.840;23.486;2022-09-09T08:26:53;90844.69;;;40.55;20.58
11952;BME280;6036;41.840;23.486;2022-09-09T08:29:19;90851.38;;;39.78;21.96
11952;BME280;6036;41.840;23.486;2022-09-09T08:31:50;90843.66;;;39.76;21.81
11952;BME280;6036;41.840;23.486;2022-09-09T08:34:17;90843.50;;;39.46;22.14
11952;BME280;6036;41.840;23.486;2022-09-09T08:36:46;90840.91;;;38.91;22.67
11952;BME280;6036;41.840;23.486;2022-09-09T08:39:14;90838.66;;;38.45;23.57
11952;BME280;6036;41.840;23.486;2022-09-09T08:57:41;90820.69;;;36.14;26.47
11952;BME280;6036;41.840;23.486;2022-09-09T09:00:10;90817.38;;;35.78;26.53
11952;BME280;6036;41.840;23.486;2022-09-09T09:03:15;90819.75;;;35.71;26.71
11952;BME280;6036;41.840;23.486;2022-09-09T09:10:47;90814.84;;;34.25;28.73
11952;BME280;6036;41.840;23.486;2022-09-09T09:15:56;90820.16;;;34.48;27.94
11952;BME280;6036;41.840;23.486;2022-09-09T09:18:26;90812.66;;;34.43;28.91
11952;BME280;6036;41.840;23.486;2022-09-09T09:21:21;90809.56;;;34.85;28.47
11952;BME280;6036;41.840;23.486;2022-09-09T09:23:57;90815.88;;;34.56;28.67
11952;BME280;6036;41.840;23.486;2022-09-09T09:26:26;90820.28;;;34.10;29.57
11952;BME280;6036;41.840;23.486;2022-09-09T09:28:55;90805.31;;;33.32;30.60
11952;BME280;6036;41.840;23.486;2022-09-09T09:31:22;90792.38;;;32.33;32.75
11952;BME280;6036;41.840;23.486;2022-09-09T09:33:54;90784.81;;;33.17;31.25
11952;BME280;6036;41.840;23.486;2022-09-09T09:36:22;90783.38;;;32.59;32.73
11952;BME280;6036;41.840;23.486;2022-09-09T09:41:36;90787.97;;;33.83;31.66
11952;BME280;6036;41.840;23.486;2022-09-09T09:44:04;90789.38;;;34.08;31.66
11952;BME280;6036;41.840;23.486;2022-09-09T09:46:30;90787.19;;;34.41;30.27
11952;BME280;6036;41.840;23.486;2022-09-09T09:49:09;90788.69;;;34.77;30.34
11952;BME280;6036;41.840;23.486;2022-09-09T09:51:35;90787.22;;;34.96;29.58
11952;BME280;6036;41.840;23.486;2022-09-09T09:56:40;90790.78;;;33.74;30.63
11952;BME280;6036;41.840;23.486;2022-09-09T09:59:20;90784.78;;;33.99;30.89
11952;BME280;6036;41.840;23.486;2022-09-09T10:01:46;90796.31;;;33.94;31.63
11952;BME280;6036;41.840;23.486;2022-09-09T10:04:20;90793.31;;;34.71;29.62
11952;BME280;6036;41.840;23.486;2022-09-09T10:06:49;90796.19;;;34.32;30.55
11952;BME280;6036;41.840;23.486;2022-09-09T10:11:49;90786.13;;;33.36;31.52
11952;BME280;6036;41.840;23.486;2022-09-09T10:14:21;90790.31;;;33.61;31.43
11952;BME280;6036;41.840;23.486;2022-09-09T10:22:47;90767.00;;;29.94;38.64
11952;BME280;6036;41.840;23.486;2022-09-09T10:33:27;90753.75;;;29.78;38.74
11952;BME280;6036;41.840;23.486;2022-09-09T10:36:21;90757.31;;;30.15;38.52
11952;BME280;6036;41.840;23.486;2022-09-09T10:38:57;90765.09;;;30.04;38.20
11952;BME280;6036;41.840;23.486;2022-09-09T10:45:35;90767.19;;;28.82;41.35
11952;BME280;6036;41.840;23.486;2022-09-09T10:50:29;90771.69;;;29.20;40.24
11952;BME280;6036;41.840;23.486;2022-09-09T10:53:22;90769.44;;;29.40;38.87
11952;BME280;6036;41.840;23.486;2022-09-09T10:55:57;90757.56;;;29.37;40.05
11952;BME280;6036;41.840;23.486;2022-09-09T10:58:27;90765.16;;;29.60;38.47
11952;BME280;6036;41.840;23.486;2022-09-09T11:00:56;90756.28;;;29.51;38.42
11952;BME280;6036;41.840;23.486;2022-09-09T11:03:28;90758.63;;;29.71;38.36
11952;BME280;6036;41.840;23.486;2022-09-09T11:06:11;90751.81;;;29.26;38.95
11952;BME280;6036;41.840;23.486;2022-09-09T11:08:38;90753.63;;;29.82;38.23
11952;BME280;6036;41.840;23.486;2022-09-09T11:16:16;90750.13;;;30.12;38.21
11952;BME280;6036;41.840;23.486;2022-09-09T11:18:45;90746.00;;;30.38;37.40
11952;BME280;6036;41.840;23.486;2022-09-09T11:21:39;90741.38;;;29.68;38.53
11952;BME280;6036;41.840;23.486;2022-09-09T11:24:47;90741.66;;;29.61;38.91
11952;BME280;6036;41.840;23.486;2022-09-09T11:27:26;90742.25;;;29.96;37.58
11952;BME280;6036;41.840;23.486;2022-09-09T11:30:13;90732.97;;;30.55;36.71
11952;BME280;6036;41.840;23.486;2022-09-09T11:33:01;90734.94;;;30.72;36.82
11952;BME280;6036;41.840;23.486;2022-09-09T11:38:46;90733.34;;;30.26;37.58
11952;BME280;6036;41.840;23.486;2022-09-09T11:41:16;90731.78;;;31.01;36.13
11952;BME280;6036;41.840;23.486;2022-09-09T11:43:45;90728.00;;;31.44;35.17
11952;BME280;6036;41.840;23.486;2022-09-09T11:46:13;90721.41;;;31.27;35.92
11952;BME280;6036;41.840;23.486;2022-09-09T11:48:57;90726.81;;;31.78;35.01
11952;BME280;6036;41.840;23.486;2022-09-09T11:51:28;90730.44;;;31.06;35.68
11952;BME280;6036;41.840;23.486;2022-09-09T11:53:56;90734.47;;;31.19;35.48
11952;BME280;6036;41.840;23.486;2022-09-09T11:56:34;90744.22;;;31.44;34.91
11952;BME280;6036;41.840;23.486;2022-09-09T11:59:05;90728.47;;;31.84;33.88
11952;BME280;6036;41.840;23.486;2022-09-09T12:01:41;90739.28;;;32.26;33.03
11952;BME280;6036;41.840;23.486;2022-09-09T12:04:17;90743.66;;;32.24;33.76
11952;BME280;6036;41.840;23.486;2022-09-09T12:07:00;90735.53;;;32.24;32.78
11952;BME280;6036;41.840;23.486;2022-09-09T12:19:41;90725.72;;;32.59;32.52
11952;BME280;6036;41.840;23.486;2022-09-09T12:30:17;90719.97;;;29.74;38.00
11952;BME280;6036;41.840;23.486;2022-09-09T12:32:42;90720.28;;;29.76;38.29
11952;BME280;6036;41.840;23.486;2022-09-09T12:35:11;90705.75;;;30.31;37.62
11952;BME280;6036;41.840;23.486;2022-09-09T12:37:42;90709.88;;;30.90;36.77
11952;BME280;6036;41.840;23.486;2022-09-09T12:40:23;90704.59;;;30.50;37.67
11952;BME280;6036;41.840;23.486;2022-09-09T12:42:49;90708.13;;;30.20;37.18
11952;BME280;6036;41.840;23.486;2022-09-09T12:45:26;90701.53;;;29.72;38.62
11952;BME280;6036;41.840;23.486;2022-09-09T12:47:57;90700.22;;;29.77;39.40
11952;BME280;6036;41.840;23.486;2022-09-09T12:50:27;90691.16;;;28.78;41.90
11952;BME280;6036;41.840;23.486;2022-09-09T12:52:55;90689.63;;;28.77;42.03
11952;BME280;6036;41.840;23.486;2022-09-09T12:55:31;90701.41;;;28.71;41.56
11952;BME280;6036;41.840;23.486;2022-09-09T12:57:59;90686.78;;;28.59;42.61
11952;BME280;6036;41.840;23.486;2022-09-09T13:00:29;90683.91;;;28.54;43.22
11952;BME280;6036;41.840;23.486;2022-09-09T13:02:57;90680.88;;;28.86;42.58
11952;BME280;6036;41.840;23.486;2022-09-09T13:05:34;90678.44;;;29.31;40.86
11952;BME280;6036;41.840;23.486;2022-09-09T13:08:11;90679.94;;;28.46;42.53
11952;BME280;6036;41.840;23.486;2022-09-09T13:13:15;90675.84;;;28.97;41.99
11952;BME280;6036;41.840;23.486;2022-09-09T13:15:58;90666.03;;;29.12;40.83
11952;BME280;6036;41.840;23.486;2022-09-09T13:18:28;90673.22;;;28.84;40.86
11952;BME280;6036;41.840;23.486;2022-09-09T13:20:55;90673.56;;;29.17;39.58
11952;BME280;6036;41.840;23.486;2022-09-09T13:23:27;90668.81;;;28.56;39.76
11952;BME280;6036;41.840;23.486;2022-09-09T13:25:56;90666.56;;;28.98;38.55
11952;BME280;6036;41.840;23.486;2022-09-09T13:28:25;90665.69;;;29.23;38.45
11952;BME280;6036;41.840;23.486;2022-09-09T13:31:01;90679.88;;;29.85;37.64
11952;BME280;6036;41.840;23.486;2022-09-09T13:33:31;90671.34;;;29.95;37.27
11952;BME280;6036;41.840;23.486;2022-09-09T13:36:04;90675.44;;;30.27;36.99
11952;BME280;6036;41.840;23.486;2022-09-09T13:38:57;90671.28;;;30.53;36.44
11952;BME280;6036;41.840;23.486;2022-09-09T13:41:24;90678.63;;;30.53;36.02
11952;BME280;6036;41.840;23.486;2022-09-09T13:43:50;90668.75;;;30.59;36.09
11952;BME280;6036;41.840;23.486;2022-09-09T13:46:35;90673.69;;;30.60;36.65
11952;BME280;6036;41.840;23.486;2022-09-09T13:51:41;90675.19;;;30.61;36.59
11952;BME280;6036;41.840;23.486;2022-09-09T13:54:12;90668.28;;;30.42;36.51
11952;BME280;6036;41.840;23.486;2022-09-09T13:56:39;90670.91;;;29.97;37.18
11952;BME280;6036;41.840;23.486;2022-09-09T13:59:10;90678.94;;;29.79;37.90
11952;BME280;6036;41.840;23.486;2022-09-09T14:01:36;90691.47;;;29.63;38.49
11952;BME280;6036;41.840;23.486;2022-09-09T14:04:03;90690.47;;;29.39;39.00
11952;BME280;6036;41.840;23.486;2022-09-09T14:06:29;90699.09;;;28.82;40.65
11952;BME280;6036;41.840;23.486;2022-09-09T14:08:54;90695.25;;;28.92;40.93
11952;BME280;6036;41.840;23.486;2022-09-09T14:11:21;90689.91;;;29.01;40.88
11952;BME280;6036;41.840;23.486;2022-09-09T14:13:50;90674.19;;;29.21;40.10
11952;BME280;6036;41.840;23.486;2022-09-09T14:16:18;90684.94;;;28.90;41.00
11952;BME280;6036;41.840;23.486;2022-09-09T14:18:45;90683.19;;;28.75;41.51
11952;BME280;6036;41.840;23.486;2022-09-09T14:21:11;90678.75;;;28.81;41.98
11952;BME280;6036;41.840;23.486;2022-09-09T14:23:37;90677.38;;;29.07;41.03
11952;BME280;6036;41.840;23.486;2022-09-09T14:26:04;90679.31;;;29.28;40.87
11952;BME280;6036;41.840;23.486;2022-09-09T14:28:29;90690.69;;;29.23;41.58
11952;BME280;6036;41.840;23.486;2022-09-09T14:30:59;90686.41;;;29.35;40.68
11952;BME280;6036;41.840;23.486;2022-09-09T14:33:25;90681.22;;;29.49;40.51
11952;BME280;6036;41.840;23.486;2022-09-09T14:35:58;90681.88;;;29.62;39.98
11952;BME280;6036;41.840;23.486;2022-09-09T14:38:25;90672.56;;;29.54;39.92
11952;BME280;6036;41.840;23.486;2022-09-09T14:40:50;90675.94;;;29.46;40.86
11952;BME280;6036;41.840;23.486;2022-09-09T14:43:16;90670.88;;;29.48;41.02
11952;BME280;6036;41.840;23.486;2022-09-09T14:45:41;90669.19;;;29.41;40.51
11952;BME280;6036;41.840;23.486;2022-09-09T14:48:08;90663.00;;;29.32;40.72
11952;BME280;6036;41.840;23.486;2022-09-09T14:50:34;90664.16;;;29.22;41.30
11952;BME280;6036;41.840;23.486;2022-09-09T14:53:02;90659.78;;;29.15;41.50
11952;BME280;6036;41.840;23.486;2022-09-09T14:55:27;90654.81;;;28.61;42.05
11952;BME280;6036;41.840;23.486;2022-09-09T14:57:54;90658.66;;;28.38;43.31
11952;BME280;6036;41.840;23.486;2022-09-09T15:00:19;90656.75;;;27.80;43.96
11952;BME280;6036;41.840;23.486;2022-09-09T15:02:45;90655.88;;;27.83;43.93
11952;BME280;6036;41.840;23.486;2022-09-09T15:05:10;90647.72;;;27.36;45.21
11952;BME280;6036;41.840;23.486;2022-09-09T15:07:36;90649.38;;;27.46;45.38
11952;BME280;6036;41.840;23.486;2022-09-09T15:10:02;90634.50;;;27.29;44.98
11952;BME280;6036;41.840;23.486;2022-09-09T15:12:28;90638.41;;;27.28;44.88
11952;BME280;6036;41.840;23.486;2022-09-09T15:14:53;90634.28;;;27.61;43.27
11952;BME280;6036;41.840;23.486;2022-09-09T15:17:20;90643.69;;;28.03;41.70
11952;BME280;6036;41.840;23.486;2022-09-09T15:19:45;90639.72;;;28.29;40.47
11952;BME280;6036;41.840;23.486;2022-09-09T15:22:11;90636.72;;;28.27;40.53
11952;BME280;6036;41.840;23.486;2022-09-09T15:24:36;90643.63;;;28.28;41.57
11952;BME280;6036;41.840;23.486;2022-09-09T15:27:02;90632.22;;;27.77;42.54
11952;BME280;6036;41.840;23.486;2022-09-09T15:29:27;90647.03;;;27.95;41.85